MMHO/HMO METAR and TAF weather

Enter ICAO airport designator
Station Type Date Time Source
MMHO METAR 2021/01/22 05:40 UTC NOAA

MMHO 220540Z 00000KT 10SM SKC 13/12 A3008 RMK SLP191 52010 907 ISOL SC


Station Type Date Time Source
MMHO Decoded METAR 2021/01/22 05:40 UTC NOAA

Hermosillo, Son., Mexico (MMHO) 29-04N 110-57W
Jan 22, 2021 - 12:40 AM EST / 2021.01.22 0540 UTC
Wind: Calm:0
Visibility: 10 mile(s):0
Sky conditions: clear
Temperature: 55 F (13 C)
Dew Point: 53 F (12 C)
Relative Humidity: 93%
Pressure (altimeter): 30.08 in. Hg (1018 hPa)
Pressure tendency: 0.03 inches (1.0 hPa) higher than three hours ago
ob: MMHO 220540Z 00000KT 10SM SKC 13/12 A3008 RMK SLP191 52010 907 ISOL SC
cycle: 5

Station Type Date Time Source
MMHO TAF 2021/01/22 06:15 UTC NOAA

TAF MMHO 220413Z 2206/2306 24005KT P6SM SCT030
FM221800 30010KT P6SM SKC
FM230200 24005KT P6SM SKC

Example: see airport list